sensor_id;sensor_type;location;lat;lon;timestamp;pressure;altitude;pressure_sealevel;temperature;humidity
74542;BME280;63015;45.378;20.360;2022-10-28T00:00:44;102067.34;;;12.14;72.17
74542;BME280;63015;45.378;20.360;2022-10-28T00:02:45;102066.34;;;12.07;72.18
74542;BME280;63015;45.378;20.360;2022-10-28T00:04:45;102067.97;;;12.02;72.16
74542;BME280;63015;45.378;20.360;2022-10-28T00:06:46;102074.06;;;12.01;72.22
74542;BME280;63015;45.378;20.360;2022-10-28T00:08:47;102072.25;;;11.98;72.16
74542;BME280;63015;45.378;20.360;2022-10-28T00:10:47;102070.47;;;11.96;72.20
74542;BME280;63015;45.378;20.360;2022-10-28T00:12:48;102065.16;;;11.93;72.14
74542;BME280;63015;45.378;20.360;2022-10-28T00:14:48;102072.88;;;11.87;72.36
74542;BME280;63015;45.378;20.360;2022-10-28T00:16:49;102070.09;;;11.79;72.63
74542;BME280;63015;45.378;20.360;2022-10-28T00:18:50;102070.00;;;11.74;72.60
74542;BME280;63015;45.378;20.360;2022-10-28T00:20:58;102071.50;;;11.63;72.98
74542;BME280;63015;45.378;20.360;2022-10-28T00:22:59;102068.81;;;11.58;72.87
74542;BME280;63015;45.378;20.360;2022-10-28T00:25:00;102069.59;;;11.54;72.96
74542;BME280;63015;45.378;20.360;2022-10-28T00:27:00;102073.13;;;11.58;72.75
74542;BME280;63015;45.378;20.360;2022-10-28T00:29:15;102067.84;;;11.55;73.22
74542;BME280;63015;45.378;20.360;2022-10-28T00:31:17;102080.75;;;11.47;73.28
74542;BME280;63015;45.378;20.360;2022-10-28T00:33:18;102071.75;;;11.34;73.91
74542;BME280;63015;45.378;20.360;2022-10-28T00:35:19;102078.50;;;11.24;74.49
74542;BME280;63015;45.378;20.360;2022-10-28T00:37:19;102074.31;;;11.31;73.75
74542;BME280;63015;45.378;20.360;2022-10-28T00:39:23;102072.69;;;11.36;73.72
74542;BME280;63015;45.378;20.360;2022-10-28T00:41:33;102073.53;;;11.35;73.93
74542;BME280;63015;45.378;20.360;2022-10-28T00:43:38;102062.97;;;11.30;73.89
74542;BME280;63015;45.378;20.360;2022-10-28T00:45:39;102069.00;;;11.28;74.10
74542;BME280;63015;45.378;20.360;2022-10-28T00:47:55;102074.16;;;11.25;74.15
74542;BME280;63015;45.378;20.360;2022-10-28T00:52:15;102071.41;;;11.18;73.70
74542;BME280;63015;45.378;20.360;2022-10-28T00:54:18;102074.44;;;10.99;74.49
74542;BME280;63015;45.378;20.360;2022-10-28T00:56:19;102070.38;;;11.10;73.83
74542;BME280;63015;45.378;20.360;2022-10-28T00:58:23;102072.84;;;11.06;74.33
74542;BME280;63015;45.378;20.360;2022-10-28T01:00:25;102073.81;;;11.09;73.82
74542;BME280;63015;45.378;20.360;2022-10-28T01:02:26;102079.06;;;11.11;74.04
74542;BME280;63015;45.378;20.360;2022-10-28T01:04:27;102073.91;;;11.14;73.81
74542;BME280;63015;45.378;20.360;2022-10-28T01:06:28;102066.94;;;11.13;73.93
74542;BME280;63015;45.378;20.360;2022-10-28T01:08:29;102077.44;;;11.16;73.71
74542;BME280;63015;45.378;20.360;2022-10-28T01:11:09;102073.03;;;11.13;73.97
74542;BME280;63015;45.378;20.360;2022-10-28T01:13:47;102068.38;;;11.00;75.08
74542;BME280;63015;45.378;20.360;2022-10-28T01:16:03;102062.00;;;10.87;75.37
74542;BME280;63015;45.378;20.360;2022-10-28T01:22:34;102061.88;;;10.82;75.10
74542;BME280;63015;45.378;20.360;2022-10-28T01:36:14;102052.41;;;10.86;74.51
74542;BME280;63015;45.378;20.360;2022-10-28T01:39:00;102048.78;;;10.79;74.53
74542;BME280;63015;45.378;20.360;2022-10-28T01:41:09;102051.28;;;10.76;74.83
74542;BME280;63015;45.378;20.360;2022-10-28T01:47:31;102039.00;;;10.71;74.65
74542;BME280;63015;45.378;20.360;2022-10-28T01:49:55;102045.22;;;10.77;74.42
74542;BME280;63015;45.378;20.360;2022-10-28T01:51:57;102045.22;;;10.76;74.79
74542;BME280;63015;45.378;20.360;2022-10-28T01:54:02;102049.59;;;10.77;74.55
74542;BME280;63015;45.378;20.360;2022-10-28T01:56:09;102050.38;;;10.74;74.68
74542;BME280;63015;45.378;20.360;2022-10-28T01:58:16;102048.41;;;10.64;75.75
74542;BME280;63015;45.378;20.360;2022-10-28T02:00:18;102046.69;;;10.66;75.15
74542;BME280;63015;45.378;20.360;2022-10-28T02:02:19;102043.25;;;10.67;75.06
74542;BME280;63015;45.378;20.360;2022-10-28T02:04:19;102038.91;;;10.67;74.94
74542;BME280;63015;45.378;20.360;2022-10-28T02:06:22;102037.25;;;10.71;74.81
74542;BME280;63015;45.378;20.360;2022-10-28T02:10:33;102045.84;;;10.67;75.24
74542;BME280;63015;45.378;20.360;2022-10-28T02:12:37;102039.69;;;10.63;75.03
74542;BME280;63015;45.378;20.360;2022-10-28T02:19:56;102037.00;;;10.60;74.89
74542;BME280;63015;45.378;20.360;2022-10-28T02:22:21;102041.16;;;10.53;75.02
74542;BME280;63015;45.378;20.360;2022-10-28T02:29:36;102040.91;;;10.11;76.83
74542;BME280;63015;45.378;20.360;2022-10-28T02:31:52;102049.88;;;10.22;75.48
74542;BME280;63015;45.378;20.360;2022-10-28T02:34:00;102047.28;;;10.22;75.62
74542;BME280;63015;45.378;20.360;2022-10-28T02:38:09;102048.06;;;10.18;75.68
74542;BME280;63015;45.378;20.360;2022-10-28T02:40:18;102047.00;;;10.11;76.22
74542;BME280;63015;45.378;20.360;2022-10-28T02:42:26;102050.28;;;10.04;76.44
74542;BME280;63015;45.378;20.360;2022-10-28T02:44:31;102054.09;;;9.85;77.45
74542;BME280;63015;45.378;20.360;2022-10-28T02:46:34;102035.09;;;9.89;76.58
74542;BME280;63015;45.378;20.360;2022-10-28T02:48:41;102048.41;;;9.98;76.47
74542;BME280;63015;45.378;20.360;2022-10-28T02:50:50;102050.19;;;10.01;76.55
74542;BME280;63015;45.378;20.360;2022-10-28T02:52:54;102043.19;;;9.98;76.80
74542;BME280;63015;45.378;20.360;2022-10-28T02:55:00;102046.66;;;9.99;76.56
74542;BME280;63015;45.378;20.360;2022-10-28T02:57:13;102048.00;;;9.84;77.04
74542;BME280;63015;45.378;20.360;2022-10-28T02:59:15;102037.97;;;9.66;77.73
74542;BME280;63015;45.378;20.360;2022-10-28T03:01:15;102053.44;;;9.62;78.23
74542;BME280;63015;45.378;20.360;2022-10-28T03:03:16;102045.72;;;9.65;77.58
74542;BME280;63015;45.378;20.360;2022-10-28T03:05:17;102051.00;;;9.68;77.26
74542;BME280;63015;45.378;20.360;2022-10-28T03:07:18;102047.63;;;9.70;77.20
74542;BME280;63015;45.378;20.360;2022-10-28T03:09:19;102044.81;;;9.64;77.41
74542;BME280;63015;45.378;20.360;2022-10-28T03:11:20;102040.63;;;9.69;77.03
74542;BME280;63015;45.378;20.360;2022-10-28T03:13:20;102046.53;;;9.62;77.33
74542;BME280;63015;45.378;20.360;2022-10-28T03:15:21;102055.28;;;9.66;77.21
74542;BME280;63015;45.378;20.360;2022-10-28T03:17:21;102047.50;;;9.37;78.58
74542;BME280;63015;45.378;20.360;2022-10-28T03:19:22;102054.66;;;9.15;79.39
74542;BME280;63015;45.378;20.360;2022-10-28T03:21:23;102056.41;;;8.62;81.89
74542;BME280;63015;45.378;20.360;2022-10-28T03:23:23;102062.06;;;8.76;81.79
74542;BME280;63015;45.378;20.360;2022-10-28T03:25:24;102061.38;;;8.81;81.73
74542;BME280;63015;45.378;20.360;2022-10-28T03:27:24;102064.06;;;8.84;81.15
74542;BME280;63015;45.378;20.360;2022-10-28T03:29:25;102063.53;;;8.67;82.43
74542;BME280;63015;45.378;20.360;2022-10-28T03:31:25;102060.56;;;8.82;81.68
74542;BME280;63015;45.378;20.360;2022-10-28T03:33:26;102062.41;;;8.86;81.38
74542;BME280;63015;45.378;20.360;2022-10-28T03:35:27;102062.25;;;8.82;81.32
74542;BME280;63015;45.378;20.360;2022-10-28T03:37:27;102060.56;;;8.82;81.54
74542;BME280;63015;45.378;20.360;2022-10-28T03:39:28;102061.91;;;8.71;82.08
74542;BME280;63015;45.378;20.360;2022-10-28T03:41:29;102062.41;;;8.59;82.62
74542;BME280;63015;45.378;20.360;2022-10-28T03:43:29;102061.00;;;8.70;82.51
74542;BME280;63015;45.378;20.360;2022-10-28T03:45:30;102052.91;;;8.61;82.37
74542;BME280;63015;45.378;20.360;2022-10-28T03:47:30;102064.31;;;8.65;82.57
74542;BME280;63015;45.378;20.360;2022-10-28T03:49:31;102066.59;;;8.81;81.70
74542;BME280;63015;45.378;20.360;2022-10-28T03:51:31;102063.63;;;8.70;82.21
74542;BME280;63015;45.378;20.360;2022-10-28T03:53:32;102071.59;;;8.49;82.69
74542;BME280;63015;45.378;20.360;2022-10-28T03:55:33;102065.88;;;8.60;82.71
74542;BME280;63015;45.378;20.360;2022-10-28T03:57:33;102064.56;;;8.72;82.03
74542;BME280;63015;45.378;20.360;2022-10-28T03:59:34;102061.72;;;8.65;81.70
74542;BME280;63015;45.378;20.360;2022-10-28T04:01:34;102066.66;;;8.84;81.19
74542;BME280;63015;45.378;20.360;2022-10-28T04:03:35;102058.31;;;8.67;81.46
74542;BME280;63015;45.378;20.360;2022-10-28T04:05:36;102065.53;;;8.49;82.47
74542;BME280;63015;45.378;20.360;2022-10-28T04:07:36;102070.25;;;8.61;82.26
74542;BME280;63015;45.378;20.360;2022-10-28T04:09:37;102071.50;;;8.46;82.99
74542;BME280;63015;45.378;20.360;2022-10-28T04:11:37;102071.13;;;8.61;82.19
74542;BME280;63015;45.378;20.360;2022-10-28T04:13:38;102077.09;;;8.34;83.50
74542;BME280;63015;45.378;20.360;2022-10-28T04:15:38;102071.63;;;8.27;83.57
74542;BME280;63015;45.378;20.360;2022-10-28T04:17:39;102075.50;;;8.14;84.00
74542;BME280;63015;45.378;20.360;2022-10-28T04:19:39;102069.50;;;8.15;84.43
74542;BME280;63015;45.378;20.360;2022-10-28T04:21:40;102068.47;;;8.35;83.97
74542;BME280;63015;45.378;20.360;2022-10-28T04:23:40;102068.22;;;8.28;83.87
74542;BME280;63015;45.378;20.360;2022-10-28T04:25:41;102069.97;;;8.29;83.90
74542;BME280;63015;45.378;20.360;2022-10-28T04:27:45;102060.16;;;8.20;84.12
74542;BME280;63015;45.378;20.360;2022-10-28T04:29:46;102063.06;;;8.29;84.13
74542;BME280;63015;45.378;20.360;2022-10-28T04:31:47;102068.69;;;8.42;83.62
74542;BME280;63015;45.378;20.360;2022-10-28T04:33:47;102066.38;;;8.49;83.26
74542;BME280;63015;45.378;20.360;2022-10-28T04:35:48;102065.66;;;8.53;83.04
74542;BME280;63015;45.378;20.360;2022-10-28T04:37:49;102077.03;;;8.33;83.27
74542;BME280;63015;45.378;20.360;2022-10-28T04:39:49;102069.41;;;8.12;83.79
74542;BME280;63015;45.378;20.360;2022-10-28T04:41:50;102067.28;;;8.26;83.60
74542;BME280;63015;45.378;20.360;2022-10-28T04:43:50;102075.78;;;8.46;82.83
74542;BME280;63015;45.378;20.360;2022-10-28T04:45:51;102077.47;;;8.19;83.52
74542;BME280;63015;45.378;20.360;2022-10-28T04:47:59;102066.69;;;8.34;83.63
74542;BME280;63015;45.378;20.360;2022-10-28T04:50:00;102070.41;;;8.41;83.40
74542;BME280;63015;45.378;20.360;2022-10-28T04:52:01;102068.25;;;8.29;83.85
74542;BME280;63015;45.378;20.360;2022-10-28T04:54:01;102074.31;;;8.28;83.64
74542;BME280;63015;45.378;20.360;2022-10-28T04:56:02;102078.97;;;8.13;84.44
74542;BME280;63015;45.378;20.360;2022-10-28T04:58:03;102078.91;;;8.37;84.16
74542;BME280;63015;45.378;20.360;2022-10-28T05:00:04;102082.75;;;8.47;83.65
74542;BME280;63015;45.378;20.360;2022-10-28T05:02:05;102086.41;;;8.52;83.33
74542;BME280;63015;45.378;20.360;2022-10-28T05:04:06;102080.63;;;8.61;82.75
74542;BME280;63015;45.378;20.360;2022-10-28T05:06:06;102076.06;;;8.53;83.11
74542;BME280;63015;45.378;20.360;2022-10-28T05:08:07;102075.53;;;8.64;82.83
74542;BME280;63015;45.378;20.360;2022-10-28T05:10:08;102083.84;;;8.79;82.23
74542;BME280;63015;45.378;20.360;2022-10-28T05:12:09;102082.13;;;8.80;82.25
74542;BME280;63015;45.378;20.360;2022-10-28T05:14:09;102087.88;;;8.45;83.60
74542;BME280;63015;45.378;20.360;2022-10-28T05:16:10;102088.66;;;8.67;82.99
74542;BME280;63015;45.378;20.360;2022-10-28T05:18:10;102081.19;;;8.78;82.58
74542;BME280;63015;45.378;20.360;2022-10-28T05:20:13;102083.59;;;8.71;82.87
74542;BME280;63015;45.378;20.360;2022-10-28T05:22:14;102085.34;;;8.72;82.69
74542;BME280;63015;45.378;20.360;2022-10-28T05:24:15;102092.59;;;8.81;82.37
74542;BME280;63015;45.378;20.360;2022-10-28T05:26:16;102094.75;;;8.69;82.90
74542;BME280;63015;45.378;20.360;2022-10-28T05:28:17;102104.91;;;8.61;83.47
74542;BME280;63015;45.378;20.360;2022-10-28T05:30:18;102096.84;;;8.53;84.06
74542;BME280;63015;45.378;20.360;2022-10-28T05:32:19;102102.69;;;8.46;84.33
74542;BME280;63015;45.378;20.360;2022-10-28T05:34:19;102100.38;;;8.55;84.30
74542;BME280;63015;45.378;20.360;2022-10-28T05:36:20;102089.00;;;8.78;83.40
74542;BME280;63015;45.378;20.360;2022-10-28T05:38:20;102090.91;;;8.83;82.94
74542;BME280;63015;45.378;20.360;2022-10-28T05:40:21;102097.06;;;8.60;83.28
74542;BME280;63015;45.378;20.360;2022-10-28T05:42:22;102095.13;;;8.80;82.99
74542;BME280;63015;45.378;20.360;2022-10-28T05:44:22;102090.06;;;8.84;82.90
74542;BME280;63015;45.378;20.360;2022-10-28T05:46:23;102094.06;;;9.00;82.29
74542;BME280;63015;45.378;20.360;2022-10-28T05:48:24;102092.06;;;8.92;82.82
74542;BME280;63015;45.378;20.360;2022-10-28T05:50:24;102100.09;;;8.72;83.78
74542;BME280;63015;45.378;20.360;2022-10-28T05:52:25;102100.91;;;8.71;83.83
74542;BME280;63015;45.378;20.360;2022-10-28T05:54:25;102100.63;;;8.89;83.13
74542;BME280;63015;45.378;20.360;2022-10-28T05:56:26;102101.72;;;8.96;82.87
74542;BME280;63015;45.378;20.360;2022-10-28T05:58:26;102091.75;;;9.10;82.26
74542;BME280;63015;45.378;20.360;2022-10-28T06:00:27;102102.44;;;9.19;81.92
74542;BME280;63015;45.378;20.360;2022-10-28T06:02:28;102099.16;;;9.25;81.67
74542;BME280;63015;45.378;20.360;2022-10-28T06:04:28;102101.13;;;9.32;81.55
74542;BME280;63015;45.378;20.360;2022-10-28T06:06:30;102108.38;;;9.42;81.03
74542;BME280;63015;45.378;20.360;2022-10-28T06:08:30;102106.47;;;9.36;81.30
74542;BME280;63015;45.378;20.360;2022-10-28T06:10:32;102110.81;;;9.37;81.31
74542;BME280;63015;45.378;20.360;2022-10-28T06:12:32;102118.19;;;9.51;80.93
74542;BME280;63015;45.378;20.360;2022-10-28T06:14:33;102121.84;;;9.58;80.81
74542;BME280;63015;45.378;20.360;2022-10-28T06:16:34;102118.72;;;9.69;80.46
74542;BME280;63015;45.378;20.360;2022-10-28T06:18:34;102122.50;;;9.79;79.99
74542;BME280;63015;45.378;20.360;2022-10-28T06:20:35;102126.81;;;9.79;80.07
74542;BME280;63015;45.378;20.360;2022-10-28T06:22:36;102127.59;;;9.76;80.41
74542;BME280;63015;45.378;20.360;2022-10-28T06:24:37;102131.16;;;9.49;81.23
74542;BME280;63015;45.378;20.360;2022-10-28T06:26:37;102126.81;;;9.21;82.04
74542;BME280;63015;45.378;20.360;2022-10-28T06:28:38;102129.38;;;9.48;81.61
74542;BME280;63015;45.378;20.360;2022-10-28T06:30:38;102134.28;;;9.66;80.78
74542;BME280;63015;45.378;20.360;2022-10-28T06:32:39;102128.91;;;9.62;80.68
74542;BME280;63015;45.378;20.360;2022-10-28T06:34:39;102131.44;;;9.59;81.02
74542;BME280;63015;45.378;20.360;2022-10-28T06:36:40;102133.81;;;9.51;81.25
74542;BME280;63015;45.378;20.360;2022-10-28T06:38:41;102139.34;;;9.63;80.87
74542;BME280;63015;45.378;20.360;2022-10-28T06:40:41;102138.44;;;9.61;80.69
74542;BME280;63015;45.378;20.360;2022-10-28T06:42:42;102144.56;;;9.63;80.78
74542;BME280;63015;45.378;20.360;2022-10-28T06:44:42;102139.09;;;9.83;80.14
74542;BME280;63015;45.378;20.360;2022-10-28T06:46:43;102146.50;;;9.99;79.95
74542;BME280;63015;45.378;20.360;2022-10-28T06:48:44;102151.06;;;10.07;79.48
74542;BME280;63015;45.378;20.360;2022-10-28T06:50:44;102146.72;;;10.07;79.37
74542;BME280;63015;45.378;20.360;2022-10-28T06:52:45;102148.41;;;10.05;79.28
74542;BME280;63015;45.378;20.360;2022-10-28T06:54:45;102151.59;;;9.95;79.62
74542;BME280;63015;45.378;20.360;2022-10-28T06:56:46;102149.69;;;9.89;80.33
74542;BME280;63015;45.378;20.360;2022-10-28T06:58:53;102159.75;;;9.77;80.95
74542;BME280;63015;45.378;20.360;2022-10-28T07:00:54;102146.81;;;9.80;81.10
74542;BME280;63015;45.378;20.360;2022-10-28T07:02:55;102150.31;;;9.80;80.97
74542;BME280;63015;45.378;20.360;2022-10-28T07:04:55;102149.91;;;9.97;80.79
74542;BME280;63015;45.378;20.360;2022-10-28T07:06:56;102151.72;;;9.99;80.78
74542;BME280;63015;45.378;20.360;2022-10-28T07:08:57;102156.41;;;10.11;80.49
74542;BME280;63015;45.378;20.360;2022-10-28T07:10:59;102157.66;;;10.24;79.92
74542;BME280;63015;45.378;20.360;2022-10-28T07:13:00;102160.19;;;10.23;79.75
74542;BME280;63015;45.378;20.360;2022-10-28T07:15:00;102155.34;;;10.04;80.77
74542;BME280;63015;45.378;20.360;2022-10-28T07:17:01;102159.53;;;9.99;81.50
74542;BME280;63015;45.378;20.360;2022-10-28T07:19:01;102162.66;;;10.16;80.77
74542;BME280;63015;45.378;20.360;2022-10-28T07:21:02;102156.09;;;10.31;80.07
74542;BME280;63015;45.378;20.360;2022-10-28T07:23:03;102163.56;;;10.49;79.61
74542;BME280;63015;45.378;20.360;2022-10-28T07:25:04;102164.91;;;10.66;79.17
74542;BME280;63015;45.378;20.360;2022-10-28T07:27:04;102162.16;;;10.60;79.55
74542;BME280;63015;45.378;20.360;2022-10-28T07:29:05;102164.34;;;10.45;79.92
74542;BME280;63015;45.378;20.360;2022-10-28T07:31:05;102169.16;;;10.32;80.82
74542;BME280;63015;45.378;20.360;2022-10-28T07:33:06;102165.84;;;10.38;80.67
74542;BME280;63015;45.378;20.360;2022-10-28T07:35:07;102159.59;;;10.63;79.40
74542;BME280;63015;45.378;20.360;2022-10-28T07:37:07;102156.66;;;10.51;80.08
74542;BME280;63015;45.378;20.360;2022-10-28T07:39:10;102158.03;;;10.70;79.63
74542;BME280;63015;45.378;20.360;2022-10-28T07:41:11;102158.38;;;10.82;79.43
74542;BME280;63015;45.378;20.360;2022-10-28T07:43:11;102155.63;;;10.78;79.53
74542;BME280;63015;45.378;20.360;2022-10-28T07:45:12;102158.06;;;11.05;79.11
74542;BME280;63015;45.378;20.360;2022-10-28T07:47:12;102156.41;;;11.09;79.00
74542;BME280;63015;45.378;20.360;2022-10-28T07:49:13;102154.56;;;11.05;78.79
74542;BME280;63015;45.378;20.360;2022-10-28T07:51:14;102152.06;;;11.08;78.91
74542;BME280;63015;45.378;20.360;2022-10-28T07:53:15;102159.38;;;11.24;78.60
74542;BME280;63015;45.378;20.360;2022-10-28T07:55:15;102162.31;;;11.37;77.99
74542;BME280;63015;45.378;20.360;2022-10-28T07:57:17;102163.16;;;11.37;77.69
74542;BME280;63015;45.378;20.360;2022-10-28T07:59:17;102154.41;;;11.33;77.86
74542;BME280;63015;45.378;20.360;2022-10-28T08:01:20;102153.78;;;11.44;78.01
74542;BME280;63015;45.378;20.360;2022-10-28T08:03:21;102155.81;;;11.57;77.94
74542;BME280;63015;45.378;20.360;2022-10-28T08:05:24;102157.44;;;11.52;77.55
74542;BME280;63015;45.378;20.360;2022-10-28T08:07:24;102167.19;;;11.59;77.68
74542;BME280;63015;45.378;20.360;2022-10-28T08:09:25;102165.66;;;11.69;77.41
74542;BME280;63015;45.378;20.360;2022-10-28T08:11:25;102158.91;;;11.79;76.98
74542;BME280;63015;45.378;20.360;2022-10-28T08:13:26;102157.16;;;11.79;76.92
74542;BME280;63015;45.378;20.360;2022-10-28T08:15:27;102159.03;;;11.85;76.85
74542;BME280;63015;45.378;20.360;2022-10-28T08:17:29;102160.09;;;11.95;76.59
74542;BME280;63015;45.378;20.360;2022-10-28T08:19:30;102156.75;;;11.99;76.57
74542;BME280;63015;45.378;20.360;2022-10-28T08:21:30;102155.69;;;11.92;76.89
74542;BME280;63015;45.378;20.360;2022-10-28T08:23:31;102154.22;;;12.04;76.92
74542;BME280;63015;45.378;20.360;2022-10-28T08:25:32;102151.22;;;12.26;76.67
74542;BME280;63015;45.378;20.360;2022-10-28T08:27:32;102154.28;;;12.49;75.90
74542;BME280;63015;45.378;20.360;2022-10-28T08:29:33;102154.47;;;12.60;75.47
74542;BME280;63015;45.378;20.360;2022-10-28T08:31:33;102145.19;;;12.78;75.42
74542;BME280;63015;45.378;20.360;2022-10-28T08:33:35;102145.47;;;12.95;74.97
74542;BME280;63015;45.378;20.360;2022-10-28T08:35:37;102148.97;;;12.97;74.73
74542;BME280;63015;45.378;20.360;2022-10-28T08:37:37;102156.00;;;12.99;74.54
74542;BME280;63015;45.378;20.360;2022-10-28T08:39:38;102148.16;;;12.99;74.48
74542;BME280;63015;45.378;20.360;2022-10-28T08:41:44;102152.72;;;13.11;74.14
74542;BME280;63015;45.378;20.360;2022-10-28T08:48:35;102148.84;;;13.40;73.02
74542;BME280;63015;45.378;20.360;2022-10-28T08:50:47;102152.38;;;13.43;72.97
74542;BME280;63015;45.378;20.360;2022-10-28T08:55:01;102152.88;;;13.79;72.65
74542;BME280;63015;45.378;20.360;2022-10-28T08:57:06;102158.19;;;13.84;71.86
74542;BME280;63015;45.378;20.360;2022-10-28T08:59:12;102160.00;;;13.89;71.81
74542;BME280;63015;45.378;20.360;2022-10-28T09:01:32;102157.06;;;13.68;71.89
74542;BME280;63015;45.378;20.360;2022-10-28T09:03:39;102154.91;;;13.37;72.56
74542;BME280;63015;45.378;20.360;2022-10-28T09:05:45;102152.41;;;13.46;72.67
74542;BME280;63015;45.378;20.360;2022-10-28T09:07:50;102158.06;;;13.74;72.21
74542;BME280;63015;45.378;20.360;2022-10-28T09:09:52;102147.69;;;13.82;71.78
74542;BME280;63015;45.378;20.360;2022-10-28T09:16:48;102151.47;;;13.41;72.48
74542;BME280;63015;45.378;20.360;2022-10-28T09:18:51;102149.38;;;13.20;73.56
74542;BME280;63015;45.378;20.360;2022-10-28T09:20:55;102149.78;;;13.43;73.10
74542;BME280;63015;45.378;20.360;2022-10-28T09:23:03;102159.78;;;13.75;72.30
74542;BME280;63015;45.378;20.360;2022-10-28T09:32:46;102140.25;;;15.07;69.27
74542;BME280;63015;45.378;20.360;2022-10-28T09:34:58;102138.69;;;15.34;67.21
74542;BME280;63015;45.378;20.360;2022-10-28T09:39:08;102126.59;;;15.57;67.27
74542;BME280;63015;45.378;20.360;2022-10-28T09:41:26;102134.44;;;15.54;66.27
74542;BME280;63015;45.378;20.360;2022-10-28T09:43:31;102125.69;;;15.57;66.83
74542;BME280;63015;45.378;20.360;2022-10-28T09:45:36;102132.91;;;15.89;66.78
74542;BME280;63015;45.378;20.360;2022-10-28T09:47:53;102130.38;;;16.15;65.58
74542;BME280;63015;45.378;20.360;2022-10-28T09:49:58;102121.59;;;16.11;64.82
74542;BME280;63015;45.378;20.360;2022-10-28T09:52:10;102123.34;;;16.05;64.72
74542;BME280;63015;45.378;20.360;2022-10-28T09:54:13;102129.50;;;16.21;65.44
74542;BME280;63015;45.378;20.360;2022-10-28T09:56:14;102123.44;;;16.43;65.24
74542;BME280;63015;45.378;20.360;2022-10-28T09:58:15;102112.94;;;16.76;64.46
74542;BME280;63015;45.378;20.360;2022-10-28T10:00:16;102119.09;;;17.06;64.02
74542;BME280;63015;45.378;20.360;2022-10-28T10:02:27;102128.75;;;17.13;63.66
74542;BME280;63015;45.378;20.360;2022-10-28T10:04:28;102127.88;;;17.19;63.39
74542;BME280;63015;45.378;20.360;2022-10-28T10:06:35;102127.00;;;17.06;63.59
74542;BME280;63015;45.378;20.360;2022-10-28T10:08:39;102126.09;;;17.12;63.30
74542;BME280;63015;45.378;20.360;2022-10-28T10:10:47;102128.75;;;17.10;63.19
74542;BME280;63015;45.378;20.360;2022-10-28T10:12:49;102126.09;;;17.36;63.08
74542;BME280;63015;45.378;20.360;2022-10-28T10:14:54;102126.91;;;17.65;62.21
74542;BME280;63015;45.378;20.360;2022-10-28T10:17:03;102127.72;;;17.76;61.45
74542;BME280;63015;45.378;20.360;2022-10-28T10:19:06;102124.16;;;17.88;61.55
74542;BME280;63015;45.378;20.360;2022-10-28T10:21:07;102123.31;;;17.84;61.85
74542;BME280;63015;45.378;20.360;2022-10-28T10:23:30;102121.53;;;17.88;61.32
74542;BME280;63015;45.378;20.360;2022-10-28T10:25:32;102120.59;;;18.03;61.48
74542;BME280;63015;45.378;20.360;2022-10-28T10:27:32;102107.22;;;18.35;60.89
74542;BME280;63015;45.378;20.360;2022-10-28T10:29:33;102107.19;;;18.45;60.25
74542;BME280;63015;45.378;20.360;2022-10-28T10:31:34;102111.38;;;18.72;60.34
74542;BME280;63015;45.378;20.360;2022-10-28T10:33:39;102110.50;;;18.68;59.56
74542;BME280;63015;45.378;20.360;2022-10-28T10:35:40;102107.81;;;18.79;59.96
74542;BME280;63015;45.378;20.360;2022-10-28T10:37:43;102109.59;;;18.74;59.54
74542;BME280;63015;45.378;20.360;2022-10-28T10:39:44;102114.63;;;19.03;59.31
74542;BME280;63015;45.378;20.360;2022-10-28T10:41:56;102096.06;;;19.11;58.98
74542;BME280;63015;45.378;20.360;2022-10-28T10:43:57;102108.25;;;19.28;58.97
74542;BME280;63015;45.378;20.360;2022-10-28T10:48:10;102107.41;;;19.22;58.45
74542;BME280;63015;45.378;20.360;2022-10-28T10:50:28;102106.72;;;19.03;57.74
74542;BME280;63015;45.378;20.360;2022-10-28T10:52:29;102104.19;;;18.93;59.45
74542;BME280;63015;45.378;20.360;2022-10-28T10:54:31;102112.75;;;17.86;62.02
74542;BME280;63015;45.378;20.360;2022-10-28T10:56:32;102104.84;;;17.78;62.45
74542;BME280;63015;45.378;20.360;2022-10-28T10:58:37;102108.22;;;18.20;61.74
74542;BME280;63015;45.378;20.360;2022-10-28T11:00:45;102105.50;;;18.31;60.78
74542;BME280;63015;45.378;20.360;2022-10-28T11:02:46;102101.88;;;18.46;60.99
74542;BME280;63015;45.378;20.360;2022-10-28T11:04:52;102093.91;;;18.52;60.76
74542;BME280;63015;45.378;20.360;2022-10-28T11:06:55;102098.28;;;18.58;60.65
74542;BME280;63015;45.378;20.360;2022-10-28T11:09:03;102100.34;;;18.10;61.37
74542;BME280;63015;45.378;20.360;2022-10-28T11:11:53;102098.25;;;18.61;60.53
74542;BME280;63015;45.378;20.360;2022-10-28T11:13:34;102092.09;;;18.64;59.54
74542;BME280;63015;45.378;20.360;2022-10-28T11:15:35;102091.13;;;18.74;59.60
74542;BME280;63015;45.378;20.360;2022-10-28T11:17:36;102091.44;;;18.29;60.54
74542;BME280;63015;45.378;20.360;2022-10-28T11:19:37;102096.03;;;17.87;62.46
74542;BME280;63015;45.378;20.360;2022-10-28T11:24:21;102081.38;;;18.78;59.33
74542;BME280;63015;45.378;20.360;2022-10-28T11:26:27;102076.75;;;19.04;59.59
74542;BME280;63015;45.378;20.360;2022-10-28T11:33:36;102071.50;;;19.03;58.39
74542;BME280;63015;45.378;20.360;2022-10-28T11:36:02;102064.72;;;19.58;57.34
74542;BME280;63015;45.378;20.360;2022-10-28T11:45:05;102063.13;;;19.43;57.90
74542;BME280;63015;45.378;20.360;2022-10-28T11:47:22;102057.06;;;20.05;58.20
74542;BME280;63015;45.378;20.360;2022-10-28T11:58:25;102041.34;;;19.96;57.07
74542;BME280;63015;45.378;20.360;2022-10-28T12:05:20;102032.19;;;19.53;57.89
74542;BME280;63015;45.378;20.360;2022-10-28T12:13:13;102015.81;;;19.21;58.41